createdAt,value
2018-07-20T00:02:08.730Z,6.70
2018-07-20T00:04:37.722Z,6.43
2018-07-20T00:07:06.777Z,6.37
2018-07-20T00:09:42.199Z,7.23
2018-07-20T00:12:11.260Z,6.00
2018-07-20T00:14:40.219Z,6.30
2018-07-20T00:17:09.224Z,7.40
2018-07-20T00:19:38.196Z,6.53
2018-07-20T00:22:07.234Z,6.07
2018-07-20T00:24:37.369Z,6.77
2018-07-20T00:27:06.871Z,7.00
2018-07-20T00:29:35.778Z,6.23
2018-07-20T00:32:05.222Z,7.00
2018-07-20T00:34:34.235Z,6.90
2018-07-20T00:37:03.214Z,6.70
2018-07-20T00:39:32.216Z,7.60
2018-07-20T00:42:01.246Z,6.77
2018-07-20T00:44:30.743Z,6.90
2018-07-20T00:46:59.711Z,7.30
2018-07-20T00:49:28.693Z,7.53
2018-07-20T00:51:57.704Z,7.03
2018-07-20T00:54:26.694Z,6.73
2018-07-20T00:56:57.035Z,6.93
2018-07-20T00:59:26.018Z,7.03
2018-07-20T01:01:55.024Z,7.10
2018-07-20T01:04:24.070Z,7.70
2018-07-20T01:06:53.045Z,7.50
2018-07-20T01:09:22.033Z,6.80
2018-07-20T01:11:51.516Z,6.60
2018-07-20T01:14:21.114Z,7.20
2018-07-20T01:16:51.236Z,7.63
2018-07-20T01:19:21.225Z,7.37
2018-07-20T01:21:50.252Z,7.17
2018-07-20T01:24:19.294Z,6.70
2018-07-20T01:26:48.293Z,8.13
2018-07-20T01:29:17.273Z,7.00
2018-07-20T01:31:47.734Z,6.63
2018-07-20T01:34:16.735Z,7.10
2018-07-20T01:36:45.706Z,7.10
2018-07-20T01:39:14.742Z,7.43
2018-07-20T01:41:43.743Z,6.43
2018-07-20T01:44:13.663Z,7.10
2018-07-20T01:46:42.645Z,6.60
2018-07-20T01:49:12.857Z,7.63
2018-07-20T01:51:41.842Z,7.10
2018-07-20T01:54:11.302Z,7.97
2018-07-20T01:56:41.233Z,7.47
2018-07-20T01:59:10.277Z,7.43
2018-07-20T02:01:39.227Z,8.30
2018-07-20T02:04:08.350Z,7.93
2018-07-20T02:06:37.313Z,7.00
2018-07-20T02:09:09.039Z,6.97
2018-07-20T02:11:38.007Z,7.20
2018-07-20T02:14:07.105Z,6.80
2018-07-20T02:16:36.080Z,7.60
2018-07-20T02:19:05.120Z,6.80
2018-07-20T02:21:34.119Z,7.47
2018-07-20T02:24:04.295Z,7.43
2018-07-20T02:26:33.251Z,8.00
2018-07-20T02:29:03.119Z,7.70
2018-07-20T02:31:32.091Z,8.57
2018-07-20T02:34:01.069Z,8.37
2018-07-20T02:36:30.131Z,7.63
2018-07-20T02:38:59.112Z,7.50
2018-07-20T02:41:28.067Z,7.60
2018-07-20T02:43:57.143Z,6.97
2018-07-20T02:46:26.081Z,7.50
2018-07-20T02:48:55.059Z,7.93
2018-07-20T02:51:24.044Z,8.20
2018-07-20T02:53:53.031Z,8.07
2018-07-20T02:56:22.027Z,8.50
2018-07-20T02:58:51.498Z,9.60
2018-07-20T03:01:20.744Z,8.50
2018-07-20T03:03:56.101Z,8.97
2018-07-20T03:06:25.068Z,9.43
2018-07-20T03:08:54.120Z,10.03
2018-07-20T03:11:23.148Z,8.67
2018-07-20T03:13:52.162Z,9.07
2018-07-20T03:16:21.206Z,8.83
2018-07-20T03:18:50.280Z,8.77
2018-07-20T03:21:19.762Z,9.17
2018-07-20T03:23:48.775Z,8.60
2018-07-20T03:26:17.750Z,8.43
2018-07-20T03:28:46.715Z,8.50
2018-07-20T03:31:15.719Z,8.30
2018-07-20T03:33:44.710Z,8.20
2018-07-20T03:36:13.773Z,8.90
2018-07-20T03:38:42.773Z,8.70
2018-07-20T03:41:13.149Z,8.90
2018-07-20T03:43:42.684Z,9.53
2018-07-20T03:46:11.693Z,7.90
2018-07-20T03:48:40.727Z,9.30
2018-07-20T03:51:09.686Z,8.50
2018-07-20T03:53:38.705Z,9.20
2018-07-20T03:56:07.707Z,9.00
2018-07-20T03:58:36.658Z,9.37
2018-07-20T04:01:05.675Z,8.97
2018-07-20T04:03:34.611Z,8.97
2018-07-20T04:06:03.605Z,8.87
2018-07-20T04:08:32.594Z,8.20
2018-07-20T04:11:01.291Z,8.93
2018-07-20T04:13:30.958Z,8.80
2018-07-20T04:16:00.574Z,8.90
2018-07-20T04:18:29.566Z,8.90
2018-07-20T04:20:58.526Z,9.50
2018-07-20T04:23:27.553Z,9.20
2018-07-20T04:25:56.538Z,9.63
2018-07-20T04:28:25.534Z,9.70
2018-07-20T04:30:54.532Z,10.40
2018-07-20T04:33:23.494Z,10.60
2018-07-20T04:35:54.075Z,10.03
2018-07-20T04:38:23.067Z,10.17
2018-07-20T04:40:53.186Z,11.37
2018-07-20T04:43:23.000Z,11.40
2018-07-20T04:45:52.003Z,10.60
2018-07-20T04:48:20.942Z,9.83
2018-07-20T04:50:49.931Z,10.67
2018-07-20T04:53:18.949Z,10.13
2018-07-20T04:55:47.971Z,10.60
2018-07-20T04:58:16.933Z,10.80
2018-07-20T05:00:46.023Z,10.40
2018-07-20T05:03:15.105Z,9.30
2018-07-20T05:05:44.091Z,10.20
2018-07-20T05:08:13.109Z,10.83
2018-07-20T05:10:42.090Z,10.90
2018-07-20T05:13:11.120Z,10.27
2018-07-20T05:15:40.090Z,9.73
2018-07-20T05:18:09.822Z,10.27
2018-07-20T05:20:38.798Z,9.60
2018-07-20T05:23:07.751Z,10.17
2018-07-20T05:25:36.880Z,9.57
2018-07-20T05:28:05.881Z,9.00
2018-07-20T05:30:35.774Z,10.47
2018-07-20T05:33:04.744Z,9.47
2018-07-20T05:35:34.658Z,9.80
2018-07-20T05:38:04.091Z,9.93
2018-07-20T05:40:33.200Z,9.50
2018-07-20T05:43:02.155Z,9.97
2018-07-20T05:45:31.329Z,8.67
2018-07-20T05:48:00.294Z,9.73
2018-07-20T05:50:29.278Z,8.70
2018-07-20T05:52:58.231Z,8.93
2018-07-20T05:55:27.223Z,9.40
2018-07-20T05:57:56.166Z,8.80
2018-07-20T06:00:25.122Z,8.30
2018-07-20T06:02:54.123Z,9.13
2018-07-20T06:05:23.097Z,9.93
2018-07-20T06:07:52.735Z,8.97
2018-07-20T06:10:22.160Z,8.50
2018-07-20T06:12:51.118Z,8.80
2018-07-20T06:15:20.199Z,8.30
2018-07-20T06:17:49.228Z,8.47
2018-07-20T06:20:18.174Z,8.73
2018-07-20T06:22:47.133Z,8.70
2018-07-20T06:25:16.120Z,7.70
2018-07-20T06:27:45.425Z,8.27
2018-07-20T06:30:14.491Z,8.27
2018-07-20T06:32:43.471Z,7.10
2018-07-20T06:35:12.489Z,7.23
2018-07-20T06:37:42.391Z,8.00
2018-07-20T06:40:11.338Z,7.00
2018-07-20T06:42:40.321Z,7.00
2018-07-20T06:45:09.266Z,7.43
2018-07-20T06:47:38.254Z,7.53
2018-07-20T06:50:12.593Z,7.07
2018-07-20T06:52:41.576Z,7.03
2018-07-20T06:55:10.537Z,6.60
2018-07-20T06:57:39.601Z,7.57
2018-07-20T07:00:09.623Z,7.40
2018-07-20T07:02:38.951Z,8.00
2018-07-20T07:05:09.433Z,7.00
2018-07-20T07:07:38.689Z,11.50
2018-07-20T07:10:09.070Z,6.83
2018-07-20T07:12:38.353Z,6.53
2018-07-20T07:15:12.151Z,6.70
2018-07-20T07:17:41.897Z,6.10
2018-07-20T07:20:11.105Z,6.77
2018-07-20T07:22:40.093Z,6.50
2018-07-20T07:25:15.430Z,5.83
2018-07-20T07:27:45.643Z,6.50
2018-07-20T07:30:14.845Z,6.07
2018-07-20T07:33:02.266Z,6.13
2018-07-20T07:35:35.062Z,6.10
2018-07-20T07:38:04.288Z,5.97
2018-07-20T07:40:33.473Z,6.90
2018-07-20T07:43:02.687Z,6.10
2018-07-20T07:45:31.898Z,4.83
2018-07-20T07:48:01.101Z,5.53
2018-07-20T07:50:30.453Z,5.70
2018-07-20T07:52:59.789Z,5.80
2018-07-20T07:55:34.536Z,5.03
2018-07-20T07:58:03.773Z,5.83
2018-07-20T08:00:33.812Z,5.37
2018-07-20T08:03:02.563Z,5.10
2018-07-20T08:05:31.611Z,5.13
2018-07-20T08:08:00.583Z,4.73
2018-07-20T08:10:29.565Z,4.70
2018-07-20T08:12:58.552Z,5.13
2018-07-20T08:15:27.529Z,5.07
2018-07-20T08:17:56.561Z,4.50
2018-07-20T08:20:25.516Z,4.93
2018-07-20T08:22:54.515Z,5.33
2018-07-20T08:25:23.472Z,4.40
2018-07-20T08:27:52.630Z,3.93
2018-07-20T08:30:21.579Z,4.70
2018-07-20T08:32:50.575Z,4.03
2018-07-20T08:35:19.547Z,5.40
2018-07-20T08:37:48.581Z,4.37
2018-07-20T08:40:17.345Z,5.17
2018-07-20T08:42:45.932Z,5.50
2018-07-20T08:45:14.782Z,5.10
2018-07-20T08:47:45.900Z,5.20
2018-07-20T08:50:15.332Z,5.27
2018-07-20T08:52:45.702Z,5.10
2018-07-20T08:55:14.682Z,5.10
2018-07-20T08:57:43.729Z,5.00
2018-07-20T09:00:12.698Z,4.37
2018-07-20T09:02:42.405Z,4.90
2018-07-20T09:05:11.917Z,4.87
2018-07-20T09:07:41.077Z,5.00
2018-07-20T09:10:10.526Z,5.00
2018-07-20T09:12:39.678Z,5.10
2018-07-20T09:15:08.780Z,4.90
2018-07-20T09:17:38.445Z,5.07
2018-07-20T09:20:07.568Z,4.80
2018-07-20T09:22:36.716Z,4.80
2018-07-20T09:25:06.099Z,4.63
2018-07-20T09:27:35.339Z,4.93
2018-07-20T09:30:04.515Z,4.77
2018-07-20T09:32:33.619Z,4.30
2018-07-20T09:35:02.806Z,4.87
2018-07-20T09:37:31.917Z,4.50
2018-07-20T09:40:01.202Z,4.97
2018-07-20T09:42:30.318Z,4.90
2018-07-20T09:44:59.477Z,5.03
2018-07-20T09:47:28.593Z,5.00
2018-07-20T09:49:57.699Z,5.33
2018-07-20T09:52:27.940Z,4.60
2018-07-20T09:54:57.096Z,4.77
2018-07-20T09:57:26.230Z,4.43
2018-07-20T09:59:55.237Z,4.87
2018-07-20T10:02:24.173Z,4.23
2018-07-20T10:04:53.702Z,5.10
2018-07-20T10:07:22.653Z,4.93
2018-07-20T10:09:54.154Z,4.40
2018-07-20T10:12:23.123Z,4.53
2018-07-20T10:14:52.214Z,5.80
2018-07-20T10:17:21.169Z,5.20
2018-07-20T10:19:50.245Z,5.77
2018-07-20T10:22:19.227Z,6.20
2018-07-20T10:24:48.276Z,6.03
2018-07-20T10:27:17.247Z,5.60
2018-07-20T10:29:46.261Z,7.93
2018-07-20T10:32:15.238Z,7.20
2018-07-20T10:34:45.138Z,7.67
2018-07-20T10:37:14.297Z,7.53
2018-07-20T10:39:43.298Z,7.30
2018-07-20T10:42:12.361Z,7.50
2018-07-20T10:44:41.378Z,6.90
2018-07-20T10:47:10.476Z,6.90
2018-07-20T10:49:39.471Z,6.90
2018-07-20T10:52:08.913Z,6.80
2018-07-20T10:54:37.911Z,7.83
2018-07-20T10:57:06.704Z,7.30
2018-07-20T10:59:35.639Z,7.90
2018-07-20T11:02:04.697Z,7.10
2018-07-20T11:04:33.657Z,8.43
2018-07-20T11:07:02.625Z,8.63
2018-07-20T11:09:35.971Z,8.63
2018-07-20T11:12:08.479Z,8.20
2018-07-20T11:14:37.635Z,7.53
2018-07-20T11:17:06.672Z,7.97
2018-07-20T11:19:35.753Z,9.73
2018-07-20T11:22:04.769Z,9.80
2018-07-20T11:24:34.697Z,10.13
2018-07-20T11:27:03.788Z,9.40
2018-07-20T11:29:32.960Z,8.97
2018-07-20T11:32:02.167Z,8.90
2018-07-20T11:34:31.225Z,8.87
2018-07-20T11:37:00.288Z,7.80
2018-07-20T11:39:29.345Z,8.63
2018-07-20T11:41:58.406Z,9.10
2018-07-20T11:44:27.409Z,9.67
2018-07-20T11:46:56.526Z,9.20
2018-07-20T11:49:26.316Z,9.30
2018-07-20T11:51:55.535Z,9.63
2018-07-20T11:54:24.675Z,9.27
2018-07-20T11:56:53.883Z,9.67
2018-07-20T11:59:23.061Z,9.20
2018-07-20T12:01:54.037Z,8.83
2018-07-20T12:04:23.034Z,8.40
2018-07-20T12:06:52.044Z,8.73
2018-07-20T12:09:21.008Z,9.47
2018-07-20T12:11:50.257Z,9.10
2018-07-20T12:14:19.247Z,9.70
2018-07-20T12:16:48.941Z,10.30
2018-07-20T12:19:17.934Z,10.10
2018-07-20T12:21:46.932Z,10.10
2018-07-20T12:24:15.917Z,9.73
2018-07-20T12:26:44.897Z,10.00
2018-07-20T12:29:14.829Z,8.70
2018-07-20T12:31:43.825Z,9.40
2018-07-20T12:34:13.184Z,9.57
2018-07-20T12:36:42.362Z,10.80
2018-07-20T12:39:12.193Z,11.10
2018-07-20T12:41:42.012Z,9.67
2018-07-20T12:44:11.211Z,11.47
2018-07-20T12:46:40.961Z,10.67
2018-07-20T12:49:10.043Z,10.40
2018-07-20T12:51:39.253Z,10.50
2018-07-20T12:54:08.618Z,10.07
2018-07-20T12:56:38.532Z,10.40
2018-07-20T12:59:07.686Z,10.57
2018-07-20T13:01:36.811Z,8.90
2018-07-20T13:04:10.873Z,9.13
2018-07-20T13:06:40.806Z,9.00
2018-07-20T13:09:12.365Z,9.70
2018-07-20T13:11:42.362Z,9.13
2018-07-20T13:14:18.036Z,9.70
2018-07-20T13:16:47.252Z,9.90
2018-07-20T13:19:17.651Z,9.90
2018-07-20T13:21:46.829Z,9.47
2018-07-20T13:24:15.999Z,9.63
2018-07-20T13:26:44.988Z,9.33
2018-07-20T13:29:13.950Z,9.50
2018-07-20T13:31:42.926Z,9.90
2018-07-20T13:34:11.898Z,9.73
2018-07-20T13:36:40.949Z,10.00
2018-07-20T13:39:11.737Z,9.43
2018-07-20T13:41:41.332Z,9.87
2018-07-20T13:44:10.982Z,9.50
2018-07-20T13:46:39.955Z,9.67
2018-07-20T13:49:08.935Z,13.90
2018-07-20T13:51:40.010Z,9.67
2018-07-20T13:54:09.476Z,9.83
2018-07-20T13:56:38.488Z,9.60
2018-07-20T13:59:07.463Z,8.70
2018-07-20T14:01:36.497Z,9.23
2018-07-20T14:04:05.584Z,9.77
2018-07-20T14:06:34.290Z,9.30
2018-07-20T14:09:03.337Z,10.20
2018-07-20T14:11:32.319Z,9.47
2018-07-20T14:14:02.011Z,8.30
2018-07-20T14:16:34.203Z,9.30
2018-07-20T14:19:03.230Z,8.77
2018-07-20T14:21:32.241Z,9.70
2018-07-20T14:24:02.037Z,9.10
2018-07-20T14:26:31.109Z,8.57
2018-07-20T14:29:01.506Z,9.07
2018-07-20T14:31:30.579Z,8.80
2018-07-20T14:33:59.504Z,9.57
2018-07-20T14:36:28.617Z,9.13
2018-07-20T14:38:57.633Z,9.30
2018-07-20T14:41:26.599Z,9.20
2018-07-20T14:43:55.572Z,8.80
2018-07-20T14:46:24.556Z,8.30
2018-07-20T14:48:54.180Z,8.90
2018-07-20T14:51:23.991Z,8.50
2018-07-20T14:53:52.965Z,7.80
2018-07-20T14:56:21.943Z,8.67
2018-07-20T14:58:50.896Z,10.13
2018-07-20T15:01:19.873Z,9.37
2018-07-20T15:03:48.848Z,8.60
2018-07-20T15:06:17.814Z,8.50
2018-07-20T15:08:46.823Z,8.00
2018-07-20T15:11:15.776Z,7.33
2018-07-20T15:13:44.744Z,8.47
2018-07-20T15:16:13.687Z,7.63
2018-07-20T15:18:42.702Z,7.13
2018-07-20T15:21:11.748Z,6.90
2018-07-20T15:23:40.788Z,8.03
2018-07-20T15:26:09.733Z,7.20
2018-07-20T15:28:38.432Z,8.07
2018-07-20T15:31:07.416Z,7.30
2018-07-20T15:33:36.419Z,6.63
2018-07-20T15:36:05.716Z,6.93
2018-07-20T15:38:34.850Z,7.70
2018-07-20T15:41:03.838Z,6.83
2018-07-20T15:43:32.991Z,7.07
2018-07-20T15:46:08.399Z,7.63
2018-07-20T15:48:31.221Z,7.47
2018-07-20T15:51:00.399Z,7.50
2018-07-20T15:53:37.361Z,7.50
2018-07-20T15:55:58.617Z,6.90
2018-07-20T15:58:27.611Z,7.47
2018-07-20T16:00:56.573Z,7.53
2018-07-20T16:03:25.529Z,7.97
2018-07-20T16:05:54.529Z,8.10
2018-07-20T16:08:23.598Z,8.67
2018-07-20T16:10:52.578Z,8.13
2018-07-20T16:13:21.575Z,9.73
2018-07-20T16:15:50.629Z,8.60
2018-07-20T16:18:19.641Z,9.00
2018-07-20T16:20:48.618Z,9.00
2018-07-20T16:23:17.586Z,8.67
2018-07-20T16:25:46.612Z,9.20
2018-07-20T16:28:16.443Z,8.57
2018-07-20T16:30:45.414Z,9.20
2018-07-20T16:33:14.429Z,9.30
2018-07-20T16:35:43.134Z,9.80
2018-07-20T16:38:12.035Z,9.10
2018-07-20T16:40:41.950Z,8.63
2018-07-20T16:43:10.972Z,8.00
2018-07-20T16:45:39.991Z,8.90
2018-07-20T16:48:09.015Z,9.20
2018-07-20T16:50:37.995Z,9.30
2018-07-20T16:53:07.014Z,9.60
2018-07-20T16:55:35.957Z,9.67
2018-07-20T16:58:04.959Z,9.60
2018-07-20T17:00:33.922Z,10.20
2018-07-20T17:03:03.071Z,9.17
2018-07-20T17:05:32.053Z,9.80
2018-07-20T17:08:01.030Z,9.40
2018-07-20T17:10:30.182Z,9.20
2018-07-20T17:12:59.231Z,9.47
2018-07-20T17:15:29.651Z,10.10
2018-07-20T17:17:58.676Z,9.00
2018-07-20T17:20:27.650Z,9.30
2018-07-20T17:22:56.625Z,9.40
2018-07-20T17:25:25.576Z,8.63
2018-07-20T17:27:54.706Z,9.63
2018-07-20T17:30:23.681Z,10.70
2018-07-20T17:32:52.680Z,10.80
2018-07-20T17:35:21.661Z,8.83
2018-07-20T17:37:50.633Z,9.83
2018-07-20T17:40:19.607Z,10.10
2018-07-20T17:42:48.569Z,10.33
2018-07-20T17:45:17.590Z,9.13
2018-07-20T17:47:46.533Z,8.50
2018-07-20T17:50:15.569Z,9.73
2018-07-20T17:52:44.518Z,10.40
2018-07-20T17:55:14.364Z,10.40
2018-07-20T17:57:43.227Z,10.57
2018-07-20T18:00:12.037Z,10.40
2018-07-20T18:02:40.752Z,9.80
2018-07-20T18:05:09.383Z,10.93
2018-07-20T18:07:38.017Z,8.97
2018-07-20T18:10:07.451Z,10.80
2018-07-20T18:12:36.917Z,11.07
2018-07-20T18:15:05.864Z,10.33
2018-07-20T18:17:34.598Z,9.80
2018-07-20T18:20:03.266Z,9.57
2018-07-20T18:22:31.902Z,9.10
2018-07-20T18:25:01.509Z,9.70
2018-07-20T18:27:30.092Z,9.20
2018-07-20T18:29:58.693Z,9.10
2018-07-20T18:32:27.354Z,8.80
2018-07-20T18:34:55.960Z,9.03
2018-07-20T18:37:24.913Z,8.63
2018-07-20T18:39:53.930Z,10.60
2018-07-20T18:42:22.920Z,43.37
2018-07-20T18:44:51.906Z,11.27
2018-07-20T18:47:20.873Z,8.90
2018-07-20T18:49:49.902Z,14.33
2018-07-20T18:52:24.510Z,12.97
2018-07-20T18:54:59.149Z,9.40
2018-07-20T18:57:33.843Z,10.27
2018-07-20T19:00:08.357Z,9.97
2018-07-20T19:02:42.753Z,8.77
2018-07-20T19:05:17.762Z,9.67
2018-07-20T19:07:52.226Z,10.80
2018-07-20T19:10:27.927Z,9.10
2018-07-20T19:13:02.264Z,10.23
2018-07-20T19:15:36.624Z,9.50
2018-07-20T19:18:11.060Z,10.00
2018-07-20T19:20:45.417Z,9.70
2018-07-20T19:23:26.392Z,9.70
2018-07-20T19:26:00.810Z,9.00
2018-07-20T19:28:35.846Z,9.27
2018-07-20T19:31:10.096Z,9.47
2018-07-20T19:33:44.495Z,10.40
2018-07-20T19:36:18.789Z,10.87
2018-07-20T19:38:53.123Z,10.27
2018-07-20T19:41:27.338Z,11.40
2018-07-20T19:44:01.967Z,10.83
2018-07-20T19:46:37.344Z,9.70
2018-07-20T19:49:11.617Z,10.13
2018-07-20T19:51:46.324Z,10.70
2018-07-20T19:54:20.642Z,12.90
2018-07-20T19:56:55.121Z,11.03
2018-07-20T19:59:29.553Z,10.70
2018-07-20T20:02:03.777Z,10.37
2018-07-20T20:04:38.289Z,12.90
2018-07-20T20:07:12.755Z,13.40
2018-07-20T20:09:47.239Z,12.50
2018-07-20T20:12:21.904Z,13.63
2018-07-20T20:14:56.285Z,13.30
2018-07-20T20:17:30.753Z,11.87
2018-07-20T20:20:08.239Z,11.23
2018-07-20T20:22:43.691Z,9.90
2018-07-20T20:25:19.573Z,9.60
2018-07-20T20:27:54.505Z,10.20
2018-07-20T20:30:29.089Z,10.80
2018-07-20T20:33:04.653Z,11.37
2018-07-20T20:35:43.057Z,11.27
2018-07-20T20:38:17.533Z,12.53
2018-07-20T20:40:52.249Z,11.87
2018-07-20T20:43:27.588Z,10.30
2018-07-20T20:46:02.317Z,10.90
2018-07-20T20:48:37.123Z,12.53
2018-07-20T20:51:11.929Z,11.40
2018-07-20T20:53:47.158Z,10.97
2018-07-20T20:56:21.871Z,10.20
2018-07-20T20:58:56.513Z,9.53
2018-07-20T21:01:33.164Z,10.60
2018-07-20T21:04:07.724Z,10.43
2018-07-20T21:06:42.172Z,10.43
2018-07-20T21:09:17.139Z,9.97
2018-07-20T21:11:51.415Z,10.60
2018-07-20T21:14:25.801Z,10.33
2018-07-20T21:17:00.341Z,10.97
2018-07-20T21:19:34.797Z,10.80
2018-07-20T21:22:10.142Z,10.23
2018-07-20T21:24:44.498Z,11.10
2018-07-20T21:27:18.914Z,10.17
2018-07-20T21:29:53.128Z,11.77
2018-07-20T21:32:27.503Z,10.63
2018-07-20T21:35:02.090Z,11.33
2018-07-20T21:37:36.582Z,11.20
2018-07-20T21:40:10.928Z,11.57
2018-07-20T21:42:45.262Z,11.47
2018-07-20T21:45:19.666Z,10.80
2018-07-20T21:47:53.934Z,11.20
2018-07-20T21:50:28.380Z,11.50
2018-07-20T21:53:02.703Z,10.80
2018-07-20T21:55:37.040Z,10.70
2018-07-20T21:58:11.528Z,10.47
2018-07-20T22:00:45.882Z,12.87
2018-07-20T22:03:20.298Z,11.77
2018-07-20T22:05:54.842Z,12.37
2018-07-20T22:08:29.409Z,11.53
2018-07-20T22:11:03.957Z,12.20
2018-07-20T22:13:38.452Z,11.07
2018-07-20T22:16:12.874Z,11.23
2018-07-20T22:18:47.345Z,10.50
2018-07-20T22:21:21.809Z,11.00
2018-07-20T22:23:56.546Z,11.03
2018-07-20T22:26:31.120Z,10.57
2018-07-20T22:29:05.721Z,11.53
2018-07-20T22:31:40.414Z,11.47
2018-07-20T22:34:15.128Z,10.90
2018-07-20T22:36:49.762Z,11.03
2018-07-20T22:39:24.543Z,12.00
2018-07-20T22:42:00.409Z,11.30
2018-07-20T22:44:35.096Z,12.40
2018-07-20T22:47:09.882Z,13.17
2018-07-20T22:49:44.738Z,11.93
2018-07-20T22:52:19.233Z,11.37
2018-07-20T22:54:53.875Z,11.10
2018-07-20T22:57:28.592Z,10.30
2018-07-20T23:00:03.095Z,11.33
2018-07-20T23:02:37.601Z,11.07
2018-07-20T23:05:12.236Z,10.40
2018-07-20T23:07:46.740Z,11.43
2018-07-20T23:10:21.475Z,11.13
2018-07-20T23:12:55.962Z,9.70
2018-07-20T23:15:30.469Z,10.93
2018-07-20T23:18:05.421Z,12.10
2018-07-20T23:20:39.968Z,11.70
2018-07-20T23:23:14.598Z,10.80
2018-07-20T23:25:49.212Z,10.40
2018-07-20T23:28:23.976Z,10.13
2018-07-20T23:30:58.571Z,10.13
2018-07-20T23:33:33.361Z,10.20
2018-07-20T23:36:08.120Z,10.60
2018-07-20T23:38:42.777Z,9.80
2018-07-20T23:41:17.544Z,9.70
2018-07-20T23:43:52.199Z,9.80
2018-07-20T23:46:26.727Z,10.40
2018-07-20T23:49:01.626Z,9.80
2018-07-20T23:51:36.333Z,10.30
2018-07-20T23:54:11.235Z,10.30
2018-07-20T23:56:45.870Z,10.57
2018-07-20T23:59:20.615Z,9.87
